sensor_id;sensor_type;location;lat;lon;timestamp;temperature;humidity
60033;DHT22;45905;50.570;10.428;2022-12-29T00:00:18;6.40;99.90
60033;DHT22;45905;50.570;10.428;2022-12-29T00:02:46;6.40;99.90
60033;DHT22;45905;50.570;10.428;2022-12-29T00:05:13;6.40;99.90
60033;DHT22;45905;50.570;10.428;2022-12-29T00:07:41;6.40;99.90
60033;DHT22;45905;50.570;10.428;2022-12-29T00:10:08;6.40;99.90
60033;DHT22;45905;50.570;10.428;2022-12-29T00:12:35;6.50;99.90
60033;DHT22;45905;50.570;10.428;2022-12-29T00:15:20;6.50;99.90
60033;DHT22;45905;50.570;10.428;2022-12-29T00:18:07;6.50;99.90
60033;DHT22;45905;50.570;10.428;2022-12-29T00:20:36;6.60;99.90
60033;DHT22;45905;50.570;10.428;2022-12-29T00:23:21;6.60;99.90
60033;DHT22;45905;50.570;10.428;2022-12-29T00:26:13;6.60;99.90
60033;DHT22;45905;50.570;10.428;2022-12-29T00:29:00;6.60;99.90
60033;DHT22;45905;50.570;10.428;2022-12-29T00:31:47;6.60;99.90
60033;DHT22;45905;50.570;10.428;2022-12-29T00:34:33;6.60;99.90
60033;DHT22;45905;50.570;10.428;2022-12-29T00:37:19;6.60;99.90
60033;DHT22;45905;50.570;10.428;2022-12-29T00:40:06;6.60;99.90
60033;DHT22;45905;50.570;10.428;2022-12-29T00:42:52;6.60;99.90
60033;DHT22;45905;50.570;10.428;2022-12-29T00:45:40;6.60;99.90
60033;DHT22;45905;50.570;10.428;2022-12-29T00:48:08;6.60;99.90
60033;DHT22;45905;50.570;10.428;2022-12-29T00:50:35;6.60;99.90
60033;DHT22;45905;50.570;10.428;2022-12-29T00:53:02;6.60;99.90
60033;DHT22;45905;50.570;10.428;2022-12-29T00:55:30;6.60;99.90
60033;DHT22;45905;50.570;10.428;2022-12-29T00:57:57;6.60;99.90
60033;DHT22;45905;50.570;10.428;2022-12-29T01:00:25;6.60;99.90
60033;DHT22;45905;50.570;10.428;2022-12-29T01:02:52;6.60;99.90
60033;DHT22;45905;50.570;10.428;2022-12-29T01:05:19;6.60;99.90
60033;DHT22;45905;50.570;10.428;2022-12-29T01:07:46;6.60;99.90
60033;DHT22;45905;50.570;10.428;2022-12-29T01:10:13;6.60;99.90
60033;DHT22;45905;50.570;10.428;2022-12-29T01:12:41;6.70;99.90
60033;DHT22;45905;50.570;10.428;2022-12-29T01:15:11;6.70;99.90
60033;DHT22;45905;50.570;10.428;2022-12-29T01:17:41;6.70;99.90
60033;DHT22;45905;50.570;10.428;2022-12-29T01:20:08;6.70;99.90
60033;DHT22;45905;50.570;10.428;2022-12-29T01:22:37;6.70;99.90
60033;DHT22;45905;50.570;10.428;2022-12-29T01:25:06;6.80;99.90
60033;DHT22;45905;50.570;10.428;2022-12-29T01:27:34;6.80;99.90
60033;DHT22;45905;50.570;10.428;2022-12-29T01:30:01;6.80;99.90
60033;DHT22;45905;50.570;10.428;2022-12-29T01:32:28;6.80;99.90
60033;DHT22;45905;50.570;10.428;2022-12-29T01:34:55;6.80;99.90
60033;DHT22;45905;50.570;10.428;2022-12-29T01:37:22;6.90;99.90
60033;DHT22;45905;50.570;10.428;2022-12-29T01:39:49;6.90;99.90
60033;DHT22;45905;50.570;10.428;2022-12-29T01:42:18;6.90;99.90
60033;DHT22;45905;50.570;10.428;2022-12-29T01:47:35;6.90;99.90
60033;DHT22;45905;50.570;10.428;2022-12-29T01:50:15;6.90;99.90
60033;DHT22;45905;50.570;10.428;2022-12-29T01:55:34;6.90;99.90
60033;DHT22;45905;50.570;10.428;2022-12-29T01:58:07;6.80;99.90
60033;DHT22;45905;50.570;10.428;2022-12-29T02:00:37;6.80;99.90
60033;DHT22;45905;50.570;10.428;2022-12-29T02:03:05;6.80;99.90
60033;DHT22;45905;50.570;10.428;2022-12-29T02:06:18;6.80;99.90
60033;DHT22;45905;50.570;10.428;2022-12-29T02:08:47;6.90;99.90
60033;DHT22;45905;50.570;10.428;2022-12-29T02:11:16;6.80;99.90
60033;DHT22;45905;50.570;10.428;2022-12-29T02:13:44;6.80;99.90
60033;DHT22;45905;50.570;10.428;2022-12-29T02:16:43;6.80;99.90
60033;DHT22;45905;50.570;10.428;2022-12-29T02:22:36;6.80;99.90
60033;DHT22;45905;50.570;10.428;2022-12-29T02:45:47;6.80;99.90
60033;DHT22;45905;50.570;10.428;2022-12-29T02:48:36;6.80;99.90
60033;DHT22;45905;50.570;10.428;2022-12-29T02:51:20;6.80;99.90
60033;DHT22;45905;50.570;10.428;2022-12-29T02:53:58;6.80;99.90
60033;DHT22;45905;50.570;10.428;2022-12-29T02:56:44;6.90;99.90
60033;DHT22;45905;50.570;10.428;2022-12-29T02:59:12;6.90;99.90
60033;DHT22;45905;50.570;10.428;2022-12-29T03:01:53;6.90;99.90
60033;DHT22;45905;50.570;10.428;2022-12-29T03:10:52;6.90;99.90
60033;DHT22;45905;50.570;10.428;2022-12-29T03:17:27;7.00;99.90
60033;DHT22;45905;50.570;10.428;2022-12-29T03:20:07;7.10;99.90
60033;DHT22;45905;50.570;10.428;2022-12-29T03:22:41;7.00;99.90
60033;DHT22;45905;50.570;10.428;2022-12-29T03:25:25;7.10;99.90
60033;DHT22;45905;50.570;10.428;2022-12-29T03:28:42;7.10;99.90
60033;DHT22;45905;50.570;10.428;2022-12-29T03:31:06;7.10;99.90
60033;DHT22;45905;50.570;10.428;2022-12-29T03:33:38;7.10;99.90
60033;DHT22;45905;50.570;10.428;2022-12-29T03:36:12;7.10;99.90
60033;DHT22;45905;50.570;10.428;2022-12-29T03:39:02;7.10;99.90
60033;DHT22;45905;50.570;10.428;2022-12-29T03:41:41;7.20;99.90
60033;DHT22;45905;50.570;10.428;2022-12-29T03:44:12;7.20;99.90
60033;DHT22;45905;50.570;10.428;2022-12-29T03:46:40;7.20;99.90
60033;DHT22;45905;50.570;10.428;2022-12-29T03:49:07;7.20;99.90
60033;DHT22;45905;50.570;10.428;2022-12-29T03:51:35;7.20;99.90
60033;DHT22;45905;50.570;10.428;2022-12-29T03:54:04;7.20;99.90
60033;DHT22;45905;50.570;10.428;2022-12-29T03:56:32;7.20;99.90
60033;DHT22;45905;50.570;10.428;2022-12-29T03:59:00;7.30;99.90
60033;DHT22;45905;50.570;10.428;2022-12-29T04:01:31;7.20;99.90
60033;DHT22;45905;50.570;10.428;2022-12-29T04:03:58;7.30;99.90
60033;DHT22;45905;50.570;10.428;2022-12-29T04:06:25;7.40;99.90
60033;DHT22;45905;50.570;10.428;2022-12-29T04:09:02;7.30;99.90
60033;DHT22;45905;50.570;10.428;2022-12-29T04:11:33;7.40;99.90
60033;DHT22;45905;50.570;10.428;2022-12-29T04:14:02;7.40;99.90
60033;DHT22;45905;50.570;10.428;2022-12-29T04:16:31;7.40;99.90
60033;DHT22;45905;50.570;10.428;2022-12-29T04:19:03;7.40;99.90
60033;DHT22;45905;50.570;10.428;2022-12-29T04:21:35;7.40;99.90
60033;DHT22;45905;50.570;10.428;2022-12-29T04:24:03;7.40;99.90
60033;DHT22;45905;50.570;10.428;2022-12-29T04:26:37;7.40;99.90
60033;DHT22;45905;50.570;10.428;2022-12-29T04:29:19;7.50;99.90
60033;DHT22;45905;50.570;10.428;2022-12-29T04:32:06;7.40;99.90
60033;DHT22;45905;50.570;10.428;2022-12-29T04:34:37;7.50;99.90
60033;DHT22;45905;50.570;10.428;2022-12-29T04:37:05;7.50;99.90
60033;DHT22;45905;50.570;10.428;2022-12-29T04:39:33;7.50;99.90
60033;DHT22;45905;50.570;10.428;2022-12-29T04:42:02;7.50;99.90
60033;DHT22;45905;50.570;10.428;2022-12-29T04:44:29;7.50;99.90
60033;DHT22;45905;50.570;10.428;2022-12-29T04:47:12;7.60;99.90
60033;DHT22;45905;50.570;10.428;2022-12-29T04:50:03;7.70;99.90
60033;DHT22;45905;50.570;10.428;2022-12-29T04:52:43;7.70;99.90
60033;DHT22;45905;50.570;10.428;2022-12-29T04:55:12;7.70;99.90
60033;DHT22;45905;50.570;10.428;2022-12-29T04:57:40;7.70;99.90
60033;DHT22;45905;50.570;10.428;2022-12-29T05:00:10;7.70;99.90
60033;DHT22;45905;50.570;10.428;2022-12-29T05:02:38;7.70;99.90
60033;DHT22;45905;50.570;10.428;2022-12-29T05:05:06;7.80;99.90
60033;DHT22;45905;50.570;10.428;2022-12-29T05:07:38;7.80;99.90
60033;DHT22;45905;50.570;10.428;2022-12-29T05:10:06;7.80;99.90
60033;DHT22;45905;50.570;10.428;2022-12-29T05:12:35;7.80;99.90
60033;DHT22;45905;50.570;10.428;2022-12-29T05:15:05;7.90;99.90
60033;DHT22;45905;50.570;10.428;2022-12-29T05:17:34;7.90;99.90
60033;DHT22;45905;50.570;10.428;2022-12-29T05:20:02;7.90;99.90
60033;DHT22;45905;50.570;10.428;2022-12-29T05:22:31;8.00;99.90
60033;DHT22;45905;50.570;10.428;2022-12-29T05:24:59;8.00;99.90
60033;DHT22;45905;50.570;10.428;2022-12-29T05:27:27;8.10;99.90
60033;DHT22;45905;50.570;10.428;2022-12-29T05:30:05;8.10;99.90
60033;DHT22;45905;50.570;10.428;2022-12-29T05:32:33;8.10;99.90
60033;DHT22;45905;50.570;10.428;2022-12-29T05:35:00;8.10;99.90
60033;DHT22;45905;50.570;10.428;2022-12-29T05:37:28;8.20;99.90
60033;DHT22;45905;50.570;10.428;2022-12-29T05:39:55;8.20;99.90
60033;DHT22;45905;50.570;10.428;2022-12-29T05:42:22;8.20;99.90
60033;DHT22;45905;50.570;10.428;2022-12-29T05:44:55;8.20;99.90
60033;DHT22;45905;50.570;10.428;2022-12-29T05:47:51;8.30;99.90
60033;DHT22;45905;50.570;10.428;2022-12-29T05:50:31;8.30;99.90
60033;DHT22;45905;50.570;10.428;2022-12-29T05:53:07;8.30;99.90
60033;DHT22;45905;50.570;10.428;2022-12-29T05:55:36;8.30;99.90
60033;DHT22;45905;50.570;10.428;2022-12-29T05:58:09;8.30;99.90
60033;DHT22;45905;50.570;10.428;2022-12-29T06:00:36;8.30;99.90
60033;DHT22;45905;50.570;10.428;2022-12-29T06:03:04;8.30;99.90
60033;DHT22;45905;50.570;10.428;2022-12-29T06:05:31;8.30;99.90
60033;DHT22;45905;50.570;10.428;2022-12-29T06:07:59;8.30;99.90
60033;DHT22;45905;50.570;10.428;2022-12-29T06:10:26;8.30;99.90
60033;DHT22;45905;50.570;10.428;2022-12-29T06:13:01;8.30;99.90
60033;DHT22;45905;50.570;10.428;2022-12-29T06:15:32;8.30;99.90
60033;DHT22;45905;50.570;10.428;2022-12-29T06:18:00;8.40;99.90
60033;DHT22;45905;50.570;10.428;2022-12-29T06:20:27;8.30;99.90
60033;DHT22;45905;50.570;10.428;2022-12-29T06:22:55;8.30;99.90
60033;DHT22;45905;50.570;10.428;2022-12-29T06:25:22;8.30;99.90
60033;DHT22;45905;50.570;10.428;2022-12-29T06:27:49;8.40;99.90
60033;DHT22;45905;50.570;10.428;2022-12-29T06:30:17;8.30;99.90
60033;DHT22;45905;50.570;10.428;2022-12-29T06:32:44;8.30;99.90
60033;DHT22;45905;50.570;10.428;2022-12-29T06:35:13;8.30;99.90
60033;DHT22;45905;50.570;10.428;2022-12-29T06:37:49;8.30;99.90
60033;DHT22;45905;50.570;10.428;2022-12-29T06:40:17;8.30;99.90
60033;DHT22;45905;50.570;10.428;2022-12-29T06:43:09;8.30;99.90
60033;DHT22;45905;50.570;10.428;2022-12-29T06:45:55;8.30;99.90
60033;DHT22;45905;50.570;10.428;2022-12-29T06:48:22;8.30;99.90
60033;DHT22;45905;50.570;10.428;2022-12-29T06:50:49;8.40;99.90
60033;DHT22;45905;50.570;10.428;2022-12-29T06:53:16;8.40;99.90
60033;DHT22;45905;50.570;10.428;2022-12-29T06:55:43;8.40;99.90
60033;DHT22;45905;50.570;10.428;2022-12-29T06:58:11;8.40;99.90
60033;DHT22;45905;50.570;10.428;2022-12-29T07:00:38;8.40;99.90
60033;DHT22;45905;50.570;10.428;2022-12-29T07:03:05;8.40;99.90
60033;DHT22;45905;50.570;10.428;2022-12-29T07:05:32;8.40;99.90
60033;DHT22;45905;50.570;10.428;2022-12-29T07:08:00;8.40;99.90
60033;DHT22;45905;50.570;10.428;2022-12-29T07:10:27;8.40;99.90
60033;DHT22;45905;50.570;10.428;2022-12-29T07:12:54;8.40;99.90
60033;DHT22;45905;50.570;10.428;2022-12-29T07:15:21;8.40;99.90
60033;DHT22;45905;50.570;10.428;2022-12-29T07:17:48;8.40;99.90
60033;DHT22;45905;50.570;10.428;2022-12-29T07:20:18;8.40;99.90
60033;DHT22;45905;50.570;10.428;2022-12-29T07:22:52;8.40;99.90
60033;DHT22;45905;50.570;10.428;2022-12-29T07:25:19;8.40;99.90
60033;DHT22;45905;50.570;10.428;2022-12-29T07:27:46;8.40;99.90
60033;DHT22;45905;50.570;10.428;2022-12-29T07:30:14;8.40;99.90
60033;DHT22;45905;50.570;10.428;2022-12-29T07:32:43;8.40;99.90
60033;DHT22;45905;50.570;10.428;2022-12-29T07:35:10;8.40;99.90
60033;DHT22;45905;50.570;10.428;2022-12-29T07:37:37;8.40;99.90
60033;DHT22;45905;50.570;10.428;2022-12-29T07:40:04;8.40;99.90
60033;DHT22;45905;50.570;10.428;2022-12-29T07:42:32;8.40;99.90
60033;DHT22;45905;50.570;10.428;2022-12-29T07:44:59;8.40;99.90
60033;DHT22;45905;50.570;10.428;2022-12-29T07:47:36;8.50;99.90
60033;DHT22;45905;50.570;10.428;2022-12-29T07:50:03;8.40;99.90
60033;DHT22;45905;50.570;10.428;2022-12-29T07:52:31;8.50;99.90
60033;DHT22;45905;50.570;10.428;2022-12-29T07:54:58;8.40;99.90
60033;DHT22;45905;50.570;10.428;2022-12-29T07:57:25;8.50;99.90
60033;DHT22;45905;50.570;10.428;2022-12-29T07:59:58;8.40;99.90
60033;DHT22;45905;50.570;10.428;2022-12-29T08:02:25;8.40;99.90
60033;DHT22;45905;50.570;10.428;2022-12-29T08:04:56;8.40;99.90
60033;DHT22;45905;50.570;10.428;2022-12-29T08:07:23;8.40;99.90
60033;DHT22;45905;50.570;10.428;2022-12-29T08:09:50;8.40;99.90
60033;DHT22;45905;50.570;10.428;2022-12-29T08:12:17;8.40;99.90
60033;DHT22;45905;50.570;10.428;2022-12-29T08:14:45;8.40;99.90
60033;DHT22;45905;50.570;10.428;2022-12-29T08:17:12;8.50;99.90
60033;DHT22;45905;50.570;10.428;2022-12-29T08:19:39;8.50;99.90
60033;DHT22;45905;50.570;10.428;2022-12-29T08:22:06;8.50;99.90
60033;DHT22;45905;50.570;10.428;2022-12-29T08:24:34;8.50;99.90
60033;DHT22;45905;50.570;10.428;2022-12-29T08:27:01;8.50;99.90
60033;DHT22;45905;50.570;10.428;2022-12-29T08:29:41;8.50;99.90
60033;DHT22;45905;50.570;10.428;2022-12-29T08:32:08;8.60;99.90
60033;DHT22;45905;50.570;10.428;2022-12-29T08:34:36;8.60;99.90
60033;DHT22;45905;50.570;10.428;2022-12-29T08:37:03;8.60;99.90
60033;DHT22;45905;50.570;10.428;2022-12-29T08:39:31;8.60;99.90
60033;DHT22;45905;50.570;10.428;2022-12-29T08:41:58;8.60;99.90
60033;DHT22;45905;50.570;10.428;2022-12-29T08:44:25;8.60;99.90
60033;DHT22;45905;50.570;10.428;2022-12-29T08:46:53;8.60;99.90
60033;DHT22;45905;50.570;10.428;2022-12-29T08:49:20;8.70;99.90
60033;DHT22;45905;50.570;10.428;2022-12-29T08:51:47;8.70;99.90
60033;DHT22;45905;50.570;10.428;2022-12-29T08:54:14;8.70;99.90
60033;DHT22;45905;50.570;10.428;2022-12-29T08:56:41;8.80;99.90
60033;DHT22;45905;50.570;10.428;2022-12-29T08:59:08;8.80;99.90
60033;DHT22;45905;50.570;10.428;2022-12-29T09:01:36;8.80;99.90
60033;DHT22;45905;50.570;10.428;2022-12-29T09:04:07;8.80;99.90
60033;DHT22;45905;50.570;10.428;2022-12-29T09:06:44;8.80;99.90
60033;DHT22;45905;50.570;10.428;2022-12-29T09:09:12;8.90;99.90
60033;DHT22;45905;50.570;10.428;2022-12-29T09:11:39;8.90;99.90
60033;DHT22;45905;50.570;10.428;2022-12-29T09:14:07;8.80;99.90
60033;DHT22;45905;50.570;10.428;2022-12-29T09:16:36;8.80;99.90
60033;DHT22;45905;50.570;10.428;2022-12-29T09:19:04;8.90;99.90
60033;DHT22;45905;50.570;10.428;2022-12-29T09:21:31;8.90;99.90
60033;DHT22;45905;50.570;10.428;2022-12-29T09:23:58;8.90;99.90
60033;DHT22;45905;50.570;10.428;2022-12-29T09:26:26;8.90;99.90
60033;DHT22;45905;50.570;10.428;2022-12-29T09:28:53;8.90;99.90
60033;DHT22;45905;50.570;10.428;2022-12-29T09:31:20;8.90;99.90
60033;DHT22;45905;50.570;10.428;2022-12-29T09:33:47;8.90;99.90
60033;DHT22;45905;50.570;10.428;2022-12-29T09:36:14;8.90;99.90
60033;DHT22;45905;50.570;10.428;2022-12-29T09:38:41;9.00;99.90
60033;DHT22;45905;50.570;10.428;2022-12-29T09:41:16;9.00;99.90
60033;DHT22;45905;50.570;10.428;2022-12-29T09:44:03;9.00;99.90
60033;DHT22;45905;50.570;10.428;2022-12-29T09:46:43;9.00;99.90
60033;DHT22;45905;50.570;10.428;2022-12-29T09:52:29;9.00;99.90
60033;DHT22;45905;50.570;10.428;2022-12-29T09:55:12;9.00;99.90
60033;DHT22;45905;50.570;10.428;2022-12-29T09:57:54;9.10;99.90
60033;DHT22;45905;50.570;10.428;2022-12-29T10:03:51;9.10;99.90
60033;DHT22;45905;50.570;10.428;2022-12-29T10:06:27;9.10;99.90
60033;DHT22;45905;50.570;10.428;2022-12-29T10:09:39;9.10;99.90
60033;DHT22;45905;50.570;10.428;2022-12-29T10:21:24;9.20;99.90
60033;DHT22;45905;50.570;10.428;2022-12-29T10:24:12;9.30;99.90
60033;DHT22;45905;50.570;10.428;2022-12-29T10:26:42;9.30;99.90
60033;DHT22;45905;50.570;10.428;2022-12-29T10:29:20;9.30;99.90
60033;DHT22;45905;50.570;10.428;2022-12-29T10:31:58;9.30;99.90
60033;DHT22;45905;50.570;10.428;2022-12-29T10:34:38;9.30;99.90
60033;DHT22;45905;50.570;10.428;2022-12-29T10:39:54;9.30;99.90
60033;DHT22;45905;50.570;10.428;2022-12-29T10:42:42;9.30;99.90
60033;DHT22;45905;50.570;10.428;2022-12-29T10:45:14;9.30;99.90
60033;DHT22;45905;50.570;10.428;2022-12-29T10:50:31;9.40;99.90
60033;DHT22;45905;50.570;10.428;2022-12-29T10:53:02;9.40;99.90
60033;DHT22;45905;50.570;10.428;2022-12-29T10:55:37;9.40;99.90
60033;DHT22;45905;50.570;10.428;2022-12-29T10:58:12;9.40;99.90
60033;DHT22;45905;50.570;10.428;2022-12-29T11:00:42;9.40;99.90
60033;DHT22;45905;50.570;10.428;2022-12-29T11:06:25;9.40;99.90
60033;DHT22;45905;50.570;10.428;2022-12-29T11:09:19;9.40;99.90
60033;DHT22;45905;50.570;10.428;2022-12-29T11:12:28;9.40;99.90
60033;DHT22;45905;50.570;10.428;2022-12-29T11:17:46;9.40;99.90
60033;DHT22;45905;50.570;10.428;2022-12-29T11:20:32;9.40;99.90
60033;DHT22;45905;50.570;10.428;2022-12-29T11:23:21;9.40;99.90
60033;DHT22;45905;50.570;10.428;2022-12-29T11:26:25;9.40;99.90
60033;DHT22;45905;50.570;10.428;2022-12-29T11:29:23;9.50;99.90
60033;DHT22;45905;50.570;10.428;2022-12-29T11:31:57;9.40;99.90
60033;DHT22;45905;50.570;10.428;2022-12-29T11:34:33;9.40;99.90
60033;DHT22;45905;50.570;10.428;2022-12-29T11:37:09;9.40;99.90
60033;DHT22;45905;50.570;10.428;2022-12-29T11:39:58;9.40;99.90
60033;DHT22;45905;50.570;10.428;2022-12-29T11:42:39;9.30;99.90
60033;DHT22;45905;50.570;10.428;2022-12-29T11:45:23;9.30;99.90
60033;DHT22;45905;50.570;10.428;2022-12-29T11:48:05;9.30;99.90
60033;DHT22;45905;50.570;10.428;2022-12-29T11:50:40;9.20;99.90
60033;DHT22;45905;50.570;10.428;2022-12-29T11:53:24;9.20;99.90
60033;DHT22;45905;50.570;10.428;2022-12-29T11:56:10;9.20;99.90
60033;DHT22;45905;50.570;10.428;2022-12-29T11:58:42;9.20;99.90
60033;DHT22;45905;50.570;10.428;2022-12-29T12:01:17;9.10;99.90
60033;DHT22;45905;50.570;10.428;2022-12-29T12:04:04;9.10;99.90
60033;DHT22;45905;50.570;10.428;2022-12-29T12:06:48;9.10;99.90
60033;DHT22;45905;50.570;10.428;2022-12-29T12:09:36;9.10;99.90
60033;DHT22;45905;50.570;10.428;2022-12-29T12:12:37;9.10;99.90
60033;DHT22;45905;50.570;10.428;2022-12-29T12:15:20;9.10;99.90
60033;DHT22;45905;50.570;10.428;2022-12-29T12:21:13;9.10;99.90
60033;DHT22;45905;50.570;10.428;2022-12-29T12:29:50;9.20;99.90
60033;DHT22;45905;50.570;10.428;2022-12-29T12:32:44;9.20;99.90
60033;DHT22;45905;50.570;10.428;2022-12-29T12:35:43;9.10;99.90
60033;DHT22;45905;50.570;10.428;2022-12-29T12:44:25;9.20;99.90
60033;DHT22;45905;50.570;10.428;2022-12-29T12:50:01;9.20;99.90
60033;DHT22;45905;50.570;10.428;2022-12-29T13:01:18;9.10;99.90
60033;DHT22;45905;50.570;10.428;2022-12-29T13:16:04;9.00;99.90
60033;DHT22;45905;50.570;10.428;2022-12-29T13:22:02;9.00;99.90
60033;DHT22;45905;50.570;10.428;2022-12-29T13:25:05;9.00;99.90
60033;DHT22;45905;50.570;10.428;2022-12-29T13:36:53;9.00;99.90
60033;DHT22;45905;50.570;10.428;2022-12-29T13:39:36;8.90;99.90
60033;DHT22;45905;50.570;10.428;2022-12-29T13:42:07;8.90;99.90
60033;DHT22;45905;50.570;10.428;2022-12-29T13:44:48;8.90;99.90
60033;DHT22;45905;50.570;10.428;2022-12-29T13:47:30;8.90;99.90
60033;DHT22;45905;50.570;10.428;2022-12-29T13:50:03;8.90;99.90
60033;DHT22;45905;50.570;10.428;2022-12-29T13:55:45;9.00;99.90
60033;DHT22;45905;50.570;10.428;2022-12-29T14:04:14;9.00;99.90
60033;DHT22;45905;50.570;10.428;2022-12-29T14:07:13;9.10;99.90
60033;DHT22;45905;50.570;10.428;2022-12-29T14:09:57;9.10;99.90
60033;DHT22;45905;50.570;10.428;2022-12-29T14:12:39;9.10;99.90
60033;DHT22;45905;50.570;10.428;2022-12-29T14:17:44;9.20;99.90
60033;DHT22;45905;50.570;10.428;2022-12-29T14:20:59;9.10;99.90
60033;DHT22;45905;50.570;10.428;2022-12-29T14:23:40;9.10;99.90
60033;DHT22;45905;50.570;10.428;2022-12-29T14:31:58;9.00;99.90
60033;DHT22;45905;50.570;10.428;2022-12-29T14:34:28;9.00;99.90
60033;DHT22;45905;50.570;10.428;2022-12-29T14:37:01;9.00;99.90
60033;DHT22;45905;50.570;10.428;2022-12-29T14:39:34;8.90;99.90
60033;DHT22;45905;50.570;10.428;2022-12-29T14:47:39;8.90;99.90
60033;DHT22;45905;50.570;10.428;2022-12-29T14:55:45;8.80;99.90
60033;DHT22;45905;50.570;10.428;2022-12-29T15:00:55;8.80;99.90
60033;DHT22;45905;50.570;10.428;2022-12-29T15:03:47;8.80;99.90
60033;DHT22;45905;50.570;10.428;2022-12-29T15:06:17;8.70;99.90
60033;DHT22;45905;50.570;10.428;2022-12-29T15:09:06;8.70;99.90
60033;DHT22;45905;50.570;10.428;2022-12-29T15:11:51;8.70;99.90
60033;DHT22;45905;50.570;10.428;2022-12-29T15:14:35;8.60;99.90
60033;DHT22;45905;50.570;10.428;2022-12-29T15:17:31;8.60;99.90
60033;DHT22;45905;50.570;10.428;2022-12-29T15:20:22;8.60;99.90
60033;DHT22;45905;50.570;10.428;2022-12-29T15:22:57;8.60;99.90
60033;DHT22;45905;50.570;10.428;2022-12-29T15:25:30;8.60;99.90
60033;DHT22;45905;50.570;10.428;2022-12-29T15:28:03;8.60;99.90
60033;DHT22;45905;50.570;10.428;2022-12-29T15:30:33;8.60;99.90
60033;DHT22;45905;50.570;10.428;2022-12-29T15:33:00;8.60;99.90
60033;DHT22;45905;50.570;10.428;2022-12-29T15:35:34;8.60;99.90
60033;DHT22;45905;50.570;10.428;2022-12-29T15:38:20;8.70;99.90
60033;DHT22;45905;50.570;10.428;2022-12-29T15:41:06;8.70;99.90
60033;DHT22;45905;50.570;10.428;2022-12-29T15:46:38;8.60;99.90
60033;DHT22;45905;50.570;10.428;2022-12-29T15:49:07;8.60;99.90
60033;DHT22;45905;50.570;10.428;2022-12-29T15:51:37;8.60;99.90
60033;DHT22;45905;50.570;10.428;2022-12-29T15:54:16;8.60;99.90
60033;DHT22;45905;50.570;10.428;2022-12-29T15:56:46;8.60;99.90
60033;DHT22;45905;50.570;10.428;2022-12-29T15:59:31;8.60;99.90
60033;DHT22;45905;50.570;10.428;2022-12-29T16:02:01;8.60;99.90
60033;DHT22;45905;50.570;10.428;2022-12-29T16:04:38;8.60;99.90
60033;DHT22;45905;50.570;10.428;2022-12-29T16:07:29;8.60;99.90
60033;DHT22;45905;50.570;10.428;2022-12-29T16:10:31;8.60;99.90
60033;DHT22;45905;50.570;10.428;2022-12-29T16:13:06;8.60;99.90
60033;DHT22;45905;50.570;10.428;2022-12-29T16:15:40;8.50;99.90
60033;DHT22;45905;50.570;10.428;2022-12-29T16:18:24;8.50;99.90
60033;DHT22;45905;50.570;10.428;2022-12-29T16:20:56;8.50;99.90
60033;DHT22;45905;50.570;10.428;2022-12-29T16:23:28;8.50;99.90
60033;DHT22;45905;50.570;10.428;2022-12-29T16:25:57;8.50;99.90
60033;DHT22;45905;50.570;10.428;2022-12-29T16:28:50;8.50;99.90
60033;DHT22;45905;50.570;10.428;2022-12-29T16:33:58;8.40;99.90
60033;DHT22;45905;50.570;10.428;2022-12-29T16:37:02;8.40;99.90
60033;DHT22;45905;50.570;10.428;2022-12-29T16:39:36;8.40;99.90
60033;DHT22;45905;50.570;10.428;2022-12-29T16:42:34;8.40;99.90
60033;DHT22;45905;50.570;10.428;2022-12-29T16:48:09;8.30;99.90
60033;DHT22;45905;50.570;10.428;2022-12-29T16:50:40;8.30;99.90
60033;DHT22;45905;50.570;10.428;2022-12-29T16:53:26;8.30;99.90
60033;DHT22;45905;50.570;10.428;2022-12-29T16:55:57;8.30;99.90
60033;DHT22;45905;50.570;10.428;2022-12-29T16:58:30;8.30;99.90
60033;DHT22;45905;50.570;10.428;2022-12-29T17:01:00;8.30;99.90
60033;DHT22;45905;50.570;10.428;2022-12-29T17:03:54;8.30;99.90
60033;DHT22;45905;50.570;10.428;2022-12-29T17:06:24;8.30;99.90
60033;DHT22;45905;50.570;10.428;2022-12-29T17:08:52;8.30;99.90
60033;DHT22;45905;50.570;10.428;2022-12-29T17:11:23;8.30;99.90
60033;DHT22;45905;50.570;10.428;2022-12-29T17:17:15;8.30;99.90
60033;DHT22;45905;50.570;10.428;2022-12-29T17:19:52;8.40;99.90
60033;DHT22;45905;50.570;10.428;2022-12-29T17:22:27;8.40;99.90
60033;DHT22;45905;50.570;10.428;2022-12-29T17:24:56;8.30;99.90
60033;DHT22;45905;50.570;10.428;2022-12-29T17:27:37;8.30;99.90
60033;DHT22;45905;50.570;10.428;2022-12-29T17:30:12;8.30;99.90
60033;DHT22;45905;50.570;10.428;2022-12-29T17:33:06;8.30;99.90
60033;DHT22;45905;50.570;10.428;2022-12-29T17:35:39;8.30;99.90
60033;DHT22;45905;50.570;10.428;2022-12-29T17:38:35;8.30;99.90
60033;DHT22;45905;50.570;10.428;2022-12-29T17:41:03;8.30;99.90
60033;DHT22;45905;50.570;10.428;2022-12-29T17:43:34;8.30;99.90
60033;DHT22;45905;50.570;10.428;2022-12-29T17:46:05;8.30;99.90
60033;DHT22;45905;50.570;10.428;2022-12-29T17:48:34;8.30;99.90
60033;DHT22;45905;50.570;10.428;2022-12-29T17:51:01;8.20;99.90
60033;DHT22;45905;50.570;10.428;2022-12-29T17:53:29;8.20;99.90
60033;DHT22;45905;50.570;10.428;2022-12-29T17:55:56;8.20;99.90
60033;DHT22;45905;50.570;10.428;2022-12-29T17:58:28;8.20;99.90
60033;DHT22;45905;50.570;10.428;2022-12-29T18:00:59;8.10;99.90
60033;DHT22;45905;50.570;10.428;2022-12-29T18:03:31;8.10;99.90
60033;DHT22;45905;50.570;10.428;2022-12-29T18:06:01;8.10;99.90
60033;DHT22;45905;50.570;10.428;2022-12-29T18:08:33;8.10;99.90
60033;DHT22;45905;50.570;10.428;2022-12-29T18:11:01;8.10;99.90
60033;DHT22;45905;50.570;10.428;2022-12-29T18:13:31;8.10;99.90
60033;DHT22;45905;50.570;10.428;2022-12-29T18:16:13;8.10;99.90
60033;DHT22;45905;50.570;10.428;2022-12-29T18:18:40;7.90;99.90
60033;DHT22;45905;50.570;10.428;2022-12-29T18:21:34;8.00;99.90
60033;DHT22;45905;50.570;10.428;2022-12-29T18:24:02;8.00;99.90
60033;DHT22;45905;50.570;10.428;2022-12-29T18:26:29;8.00;99.90
60033;DHT22;45905;50.570;10.428;2022-12-29T18:29:01;8.00;99.90
60033;DHT22;45905;50.570;10.428;2022-12-29T18:31:30;8.00;99.90
60033;DHT22;45905;50.570;10.428;2022-12-29T18:34:00;7.90;99.90
60033;DHT22;45905;50.570;10.428;2022-12-29T18:36:33;7.90;99.90
60033;DHT22;45905;50.570;10.428;2022-12-29T18:39:00;7.90;99.90
60033;DHT22;45905;50.570;10.428;2022-12-29T18:41:28;7.90;99.90
60033;DHT22;45905;50.570;10.428;2022-12-29T18:43:57;7.90;99.90
60033;DHT22;45905;50.570;10.428;2022-12-29T18:46:25;7.80;99.90
60033;DHT22;45905;50.570;10.428;2022-12-29T18:48:53;7.80;99.90
60033;DHT22;45905;50.570;10.428;2022-12-29T18:51:22;7.80;99.90
60033;DHT22;45905;50.570;10.428;2022-12-29T18:53:51;7.80;99.90
60033;DHT22;45905;50.570;10.428;2022-12-29T18:56:21;7.80;99.90